createdAt,value
2023-01-01T00:02:21.028Z,114.70
2023-01-01T00:04:49.600Z,104.75
2023-01-01T00:07:16.830Z,99.00
2023-01-01T00:10:02.627Z,96.90
2023-01-01T00:12:30.095Z,90.03
2023-01-01T00:14:57.214Z,92.32
2023-01-01T00:17:24.460Z,94.57
2023-01-01T00:19:51.523Z,97.70
2023-01-01T00:25:06.513Z,108.93
2023-01-01T00:27:33.993Z,120.68
2023-01-01T00:30:01.217Z,154.00
2023-01-01T00:32:28.525Z,155.10
2023-01-01T00:34:55.569Z,149.93
2023-01-01T00:37:22.723Z,139.63
2023-01-01T00:39:49.962Z,132.45
2023-01-01T00:42:17.232Z,131.93
2023-01-01T00:44:44.363Z,132.32
2023-01-01T00:47:11.592Z,136.30
2023-01-01T00:49:38.752Z,147.50
2023-01-01T00:52:05.873Z,140.95
2023-01-01T00:54:33.062Z,136.50
2023-01-01T00:57:00.214Z,139.43
2023-01-01T00:59:29.078Z,140.27
2023-01-01T01:01:56.564Z,133.27
2023-01-01T01:04:24.006Z,132.38
2023-01-01T01:06:51.138Z,135.02
2023-01-01T01:09:18.240Z,141.75
2023-01-01T01:11:45.238Z,127.95
2023-01-01T01:14:12.384Z,108.97
2023-01-01T01:16:39.594Z,85.03
2023-01-01T01:19:06.864Z,83.85
2023-01-01T01:21:34.913Z,71.28
2023-01-01T01:24:03.025Z,59.20
2023-01-01T01:26:31.349Z,51.08
2023-01-01T01:28:59.047Z,37.05
2023-01-01T01:31:27.998Z,29.83
2023-01-01T01:33:55.379Z,26.95
2023-01-01T01:36:22.770Z,24.73
2023-01-01T01:38:50.239Z,18.48
2023-01-01T01:41:27.862Z,18.65
2023-01-01T01:43:57.260Z,15.40
2023-01-01T01:46:30.584Z,15.73
2023-01-01T01:49:00.523Z,12.88
2023-01-01T01:51:32.951Z,13.13
2023-01-01T01:54:05.721Z,12.50
2023-01-01T01:56:38.386Z,10.80
2023-01-01T01:59:05.943Z,11.80
2023-01-01T02:01:33.982Z,11.93
2023-01-01T02:04:02.368Z,10.60
2023-01-01T02:06:31.040Z,9.80
2023-01-01T02:08:59.482Z,9.43
2023-01-01T02:11:26.668Z,8.38
2023-01-01T02:13:54.604Z,8.23
2023-01-01T02:16:22.110Z,9.25
2023-01-01T02:19:02.458Z,8.13
2023-01-01T02:21:40.735Z,8.43
2023-01-01T02:24:10.591Z,7.18
2023-01-01T02:26:40.848Z,7.15
2023-01-01T02:29:20.136Z,7.80
2023-01-01T02:31:57.884Z,7.80
2023-01-01T02:34:28.807Z,10.95
2023-01-01T02:36:57.719Z,9.90
2023-01-01T02:39:28.095Z,23.08
2023-01-01T02:41:56.937Z,21.55
2023-01-01T02:44:26.406Z,20.90
2023-01-01T02:46:53.627Z,23.98
2023-01-01T02:49:20.842Z,30.83
2023-01-01T02:52:00.162Z,31.73
2023-01-01T02:54:27.315Z,31.10
2023-01-01T02:57:17.380Z,33.15
2023-01-01T03:00:28.451Z,35.80
2023-01-01T03:03:06.619Z,37.55
2023-01-01T03:06:14.718Z,36.15
2023-01-01T03:08:55.378Z,39.22
2023-01-01T03:11:24.290Z,40.78
2023-01-01T03:14:14.549Z,42.97
2023-01-01T03:16:41.759Z,42.15
2023-01-01T03:19:23.590Z,40.17
2023-01-01T03:21:52.375Z,38.38
2023-01-01T03:24:25.660Z,38.33
2023-01-01T03:26:54.907Z,38.28
2023-01-01T03:29:23.994Z,34.28
2023-01-01T03:31:53.474Z,33.60
2023-01-01T03:34:23.371Z,32.53
2023-01-01T03:36:53.116Z,32.55
2023-01-01T03:39:29.787Z,26.20
2023-01-01T03:42:02.810Z,19.67
2023-01-01T03:44:34.568Z,18.17
2023-01-01T03:47:04.627Z,14.02
2023-01-01T03:49:31.840Z,13.15
2023-01-01T03:52:19.114Z,13.13
2023-01-01T03:54:59.599Z,14.88
2023-01-01T03:57:47.029Z,14.25
2023-01-01T04:00:22.504Z,13.93
2023-01-01T04:03:07.473Z,16.50
2023-01-01T04:05:39.333Z,18.25
2023-01-01T04:08:06.644Z,18.88
2023-01-01T04:10:34.854Z,18.67
2023-01-01T04:13:03.435Z,19.20
2023-01-01T04:15:30.944Z,16.15
2023-01-01T04:17:58.077Z,12.98
2023-01-01T04:20:25.913Z,16.95
2023-01-01T04:22:55.914Z,16.98
2023-01-01T04:25:23.152Z,18.25
2023-01-01T04:27:50.235Z,21.30
2023-01-01T04:30:17.673Z,21.42
2023-01-01T04:32:44.769Z,21.98
2023-01-01T04:35:13.097Z,22.10
2023-01-01T04:37:43.596Z,24.02
2023-01-01T04:40:13.689Z,25.02
2023-01-01T04:42:40.936Z,25.15
2023-01-01T04:45:08.449Z,25.88
2023-01-01T04:47:35.681Z,24.95
2023-01-01T04:50:02.799Z,24.48
2023-01-01T04:52:29.921Z,23.58
2023-01-01T04:54:57.663Z,22.20
2023-01-01T04:57:25.825Z,21.88
2023-01-01T04:59:52.911Z,21.92
2023-01-01T05:02:20.104Z,23.73
2023-01-01T05:04:47.393Z,21.83
2023-01-01T05:07:14.539Z,22.88
2023-01-01T05:09:41.713Z,17.85
2023-01-01T05:12:08.954Z,17.17
2023-01-01T05:14:36.103Z,15.07
2023-01-01T05:17:03.275Z,13.32
2023-01-01T05:19:30.370Z,19.30
2023-01-01T05:21:57.467Z,17.92
2023-01-01T05:24:24.534Z,16.52
2023-01-01T05:26:51.837Z,15.73
2023-01-01T05:29:19.893Z,16.83
2023-01-01T05:31:47.288Z,15.32
2023-01-01T05:34:14.835Z,17.05
2023-01-01T05:36:42.042Z,15.55
2023-01-01T05:39:10.225Z,16.50
2023-01-01T05:41:37.456Z,12.88
2023-01-01T05:44:05.680Z,14.00
2023-01-01T05:46:34.448Z,13.05
2023-01-01T05:49:01.591Z,13.27
2023-01-01T05:51:29.596Z,11.90
2023-01-01T05:53:57.026Z,10.55
2023-01-01T05:56:24.310Z,11.27
2023-01-01T05:58:51.735Z,10.10
2023-01-01T06:01:20.345Z,9.35
2023-01-01T06:03:49.200Z,9.57
2023-01-01T06:06:20.629Z,9.57
2023-01-01T06:08:56.588Z,9.25
2023-01-01T06:11:23.851Z,10.27
2023-01-01T06:13:54.737Z,10.10
2023-01-01T06:16:22.159Z,6.30
2023-01-01T06:18:49.345Z,5.70
2023-01-01T06:21:17.636Z,8.02
2023-01-01T06:23:45.048Z,12.30
2023-01-01T06:26:13.652Z,15.35
2023-01-01T06:28:40.887Z,15.98
2023-01-01T06:31:09.124Z,14.93
2023-01-01T06:33:36.717Z,17.42
2023-01-01T06:36:04.943Z,17.42
2023-01-01T06:38:32.975Z,17.15
2023-01-01T06:41:01.493Z,17.83
2023-01-01T06:43:29.853Z,18.58
2023-01-01T06:46:03.293Z,19.38
2023-01-01T06:48:31.563Z,19.88
2023-01-01T06:50:59.013Z,19.63
2023-01-01T06:53:26.655Z,19.10
2023-01-01T06:55:57.349Z,18.50
2023-01-01T06:58:24.719Z,18.17
2023-01-01T07:00:51.807Z,18.33
2023-01-01T07:03:18.940Z,18.23
2023-01-01T07:05:46.045Z,17.75
2023-01-01T07:08:13.174Z,18.33
2023-01-01T07:10:40.366Z,17.88
2023-01-01T07:13:07.563Z,15.48
2023-01-01T07:15:34.912Z,16.20
2023-01-01T07:18:02.171Z,17.33
2023-01-01T07:20:29.264Z,16.00
2023-01-01T07:22:56.438Z,17.17
2023-01-01T07:25:24.116Z,16.20
2023-01-01T07:27:51.217Z,14.95
2023-01-01T07:30:18.462Z,13.57
2023-01-01T07:32:45.602Z,10.77
2023-01-01T07:35:12.743Z,14.23
2023-01-01T07:37:39.872Z,11.07
2023-01-01T07:40:08.514Z,10.45
2023-01-01T07:42:35.703Z,11.95
2023-01-01T07:45:02.805Z,18.50
2023-01-01T07:47:29.942Z,18.20
2023-01-01T07:49:57.089Z,13.55
2023-01-01T07:52:24.298Z,17.50
2023-01-01T07:54:51.348Z,20.00
2023-01-01T07:57:18.514Z,19.23
2023-01-01T07:59:45.718Z,19.33
2023-01-01T08:02:13.271Z,21.38
2023-01-01T08:04:40.450Z,21.08
2023-01-01T08:07:07.575Z,20.55
2023-01-01T08:09:34.673Z,20.23
2023-01-01T08:12:02.289Z,19.90
2023-01-01T08:14:30.552Z,19.60
2023-01-01T08:16:58.254Z,21.23
2023-01-01T08:19:25.330Z,21.00
2023-01-01T08:21:52.490Z,20.67
2023-01-01T08:24:19.641Z,20.10
2023-01-01T08:26:49.435Z,18.95
2023-01-01T08:29:17.069Z,20.30
2023-01-01T08:31:44.381Z,22.25
2023-01-01T08:34:11.516Z,22.80
2023-01-01T08:36:40.896Z,23.20
2023-01-01T08:39:08.583Z,22.88
2023-01-01T08:41:36.526Z,22.20
2023-01-01T08:44:03.827Z,22.42
2023-01-01T08:46:31.370Z,22.85
2023-01-01T08:48:58.576Z,23.90
2023-01-01T08:51:25.817Z,21.67
2023-01-01T08:53:53.169Z,20.35
2023-01-01T08:56:20.810Z,19.13
2023-01-01T08:58:48.176Z,20.15
2023-01-01T09:01:15.598Z,20.50
2023-01-01T09:03:44.239Z,21.15
2023-01-01T09:06:11.416Z,20.90
2023-01-01T09:08:38.570Z,21.10
2023-01-01T09:11:05.731Z,22.77
2023-01-01T09:13:34.405Z,21.58
2023-01-01T09:16:01.698Z,22.30
2023-01-01T09:18:32.555Z,22.23
2023-01-01T09:20:59.697Z,20.88
2023-01-01T09:23:26.879Z,21.13
2023-01-01T09:25:54.084Z,19.63
2023-01-01T09:28:25.592Z,19.58
2023-01-01T09:30:53.121Z,19.52
2023-01-01T09:33:20.635Z,18.67
2023-01-01T09:35:47.725Z,18.17
2023-01-01T09:38:14.925Z,18.80
2023-01-01T09:40:50.930Z,17.42
2023-01-01T09:43:18.637Z,17.00
2023-01-01T09:46:00.686Z,16.00
2023-01-01T09:48:29.736Z,14.20
2023-01-01T09:50:57.320Z,12.00
2023-01-01T09:53:27.319Z,14.98
2023-01-01T09:55:57.093Z,12.45
2023-01-01T09:58:28.350Z,10.23
2023-01-01T10:00:57.816Z,9.07
2023-01-01T10:04:03.626Z,8.88
2023-01-01T10:06:32.405Z,10.13
2023-01-01T10:09:09.970Z,11.45
2023-01-01T10:11:45.393Z,11.63
2023-01-01T10:14:24.314Z,9.30
2023-01-01T10:16:54.888Z,9.70
2023-01-01T10:19:35.098Z,10.75
2023-01-01T10:22:04.836Z,10.30
2023-01-01T10:24:31.875Z,8.48
2023-01-01T10:27:00.117Z,8.70
2023-01-01T10:29:47.020Z,10.93
2023-01-01T10:32:34.329Z,9.73
2023-01-01T10:35:02.844Z,8.45
2023-01-01T10:37:32.126Z,9.90
2023-01-01T10:39:59.292Z,9.82
2023-01-01T10:42:26.506Z,9.45
2023-01-01T10:44:54.249Z,10.13
2023-01-01T10:47:25.079Z,10.57
2023-01-01T10:49:57.145Z,10.10
2023-01-01T10:52:26.815Z,8.00
2023-01-01T10:54:54.229Z,7.45
2023-01-01T10:57:41.646Z,7.90
2023-01-01T11:00:28.528Z,7.47
2023-01-01T11:03:14.276Z,8.02
2023-01-01T11:06:00.331Z,7.25
2023-01-01T11:08:28.444Z,6.97
2023-01-01T11:10:57.953Z,6.95
2023-01-01T11:13:25.269Z,6.13
2023-01-01T11:15:52.373Z,7.07
2023-01-01T11:18:36.376Z,6.40
2023-01-01T11:21:04.694Z,7.47
2023-01-01T11:23:34.295Z,6.05
2023-01-01T11:26:02.771Z,6.00
2023-01-01T11:28:31.979Z,5.63
2023-01-01T11:31:01.330Z,6.13
2023-01-01T11:33:29.474Z,6.30
2023-01-01T11:35:56.983Z,6.15
2023-01-01T11:38:29.843Z,6.45
2023-01-01T11:41:03.050Z,6.63
2023-01-01T11:43:31.906Z,5.72
2023-01-01T11:45:59.784Z,6.03
2023-01-01T11:48:31.641Z,6.63
2023-01-01T11:51:03.078Z,7.10
2023-01-01T11:53:32.312Z,6.60
2023-01-01T11:56:02.317Z,6.70
2023-01-01T11:58:41.923Z,6.35
2023-01-01T12:01:14.666Z,6.65
2023-01-01T12:03:41.844Z,7.10
2023-01-01T12:06:28.248Z,7.18
2023-01-01T12:09:00.510Z,7.00
2023-01-01T12:11:27.660Z,7.35
2023-01-01T12:14:02.531Z,7.78
2023-01-01T12:16:32.406Z,6.25
2023-01-01T12:19:06.945Z,6.15
2023-01-01T12:21:36.110Z,6.70
2023-01-01T12:24:04.821Z,5.70
2023-01-01T12:26:43.676Z,7.20
2023-01-01T12:29:13.881Z,7.20
2023-01-01T12:31:49.650Z,7.10
2023-01-01T12:34:18.212Z,6.20
2023-01-01T12:36:45.286Z,6.22
2023-01-01T12:39:15.373Z,6.50
2023-01-01T12:41:54.851Z,6.30
2023-01-01T12:44:22.055Z,6.07
2023-01-01T12:47:09.422Z,6.53
2023-01-01T12:49:37.028Z,6.50
2023-01-01T12:52:14.871Z,6.88
2023-01-01T12:55:00.754Z,7.22
2023-01-01T12:57:35.010Z,11.40
2023-01-01T13:00:03.302Z,7.82
2023-01-01T13:02:33.492Z,7.55
2023-01-01T13:05:03.496Z,7.35
2023-01-01T13:07:32.127Z,7.47
2023-01-01T13:10:04.018Z,7.45
2023-01-01T13:12:33.145Z,7.00
2023-01-01T13:15:00.265Z,7.82
2023-01-01T13:17:29.164Z,8.07
2023-01-01T13:19:59.307Z,7.70
2023-01-01T13:22:26.366Z,7.70
2023-01-01T13:25:18.095Z,7.30
2023-01-01T13:27:57.354Z,8.25
2023-01-01T13:30:41.709Z,8.00
2023-01-01T13:33:27.298Z,8.48
2023-01-01T13:36:10.050Z,9.00
2023-01-01T13:38:46.319Z,8.15
2023-01-01T13:41:32.079Z,8.70
2023-01-01T13:44:03.376Z,8.60
2023-01-01T13:46:33.567Z,8.48
2023-01-01T13:49:16.494Z,8.65
2023-01-01T13:52:06.553Z,8.80
2023-01-01T13:54:35.579Z,9.27
2023-01-01T13:57:14.830Z,10.20
2023-01-01T13:59:54.062Z,11.13
2023-01-01T14:02:24.352Z,10.68
2023-01-01T14:04:56.889Z,9.60
2023-01-01T14:10:17.571Z,9.30
2023-01-01T14:12:44.912Z,9.75
2023-01-01T14:15:16.161Z,9.02
2023-01-01T14:17:44.151Z,10.43
2023-01-01T14:20:15.455Z,12.13
2023-01-01T14:22:44.338Z,13.73
2023-01-01T14:25:15.935Z,14.52
2023-01-01T14:27:44.380Z,15.00
2023-01-01T14:30:18.736Z,15.88
2023-01-01T14:32:45.899Z,16.25
2023-01-01T14:35:15.189Z,15.35
2023-01-01T14:37:42.461Z,16.08
2023-01-01T14:40:17.393Z,16.98
2023-01-01T14:42:45.844Z,14.90
2023-01-01T14:45:19.116Z,15.93
2023-01-01T14:47:50.244Z,16.05
2023-01-01T14:50:20.521Z,17.02
2023-01-01T14:52:51.501Z,20.60
2023-01-01T14:55:19.284Z,18.60
2023-01-01T14:57:48.082Z,17.00
2023-01-01T15:00:21.916Z,16.90
2023-01-01T15:02:49.306Z,17.10
2023-01-01T15:05:22.853Z,17.58
2023-01-01T15:08:00.073Z,18.35
2023-01-01T15:10:32.480Z,19.08
2023-01-01T15:12:59.744Z,18.73
2023-01-01T15:15:40.872Z,19.58
2023-01-01T15:18:28.006Z,19.05
2023-01-01T15:20:56.006Z,19.40
2023-01-01T15:23:23.202Z,19.02
2023-01-01T15:25:50.520Z,19.48
2023-01-01T15:28:20.354Z,19.42
2023-01-01T15:30:54.679Z,20.48
2023-01-01T15:33:22.264Z,19.75
2023-01-01T15:35:50.565Z,19.30
2023-01-01T15:38:23.159Z,20.92
2023-01-01T15:40:53.467Z,22.30
2023-01-01T15:43:31.155Z,25.60
2023-01-01T15:46:12.210Z,30.92
2023-01-01T15:48:47.266Z,33.92
2023-01-01T15:51:15.848Z,33.78
2023-01-01T15:53:49.408Z,32.65
2023-01-01T15:56:17.081Z,31.92
2023-01-01T15:58:48.445Z,32.33
2023-01-01T16:01:19.957Z,32.25
2023-01-01T16:03:47.941Z,30.75
2023-01-01T16:06:16.435Z,30.77
2023-01-01T16:08:43.839Z,31.80
2023-01-01T16:11:10.960Z,32.08
2023-01-01T16:13:38.245Z,31.85
2023-01-01T16:16:07.874Z,32.03
2023-01-01T16:18:36.380Z,31.83
2023-01-01T16:21:04.498Z,32.92
2023-01-01T16:23:32.883Z,32.85
2023-01-01T16:26:00.096Z,39.25
2023-01-01T16:28:27.256Z,35.58
2023-01-01T16:30:55.179Z,37.33
2023-01-01T16:33:25.870Z,40.13
2023-01-01T16:35:52.994Z,39.63
2023-01-01T16:38:20.057Z,41.78
2023-01-01T16:40:47.160Z,41.63
2023-01-01T16:43:18.437Z,39.88
2023-01-01T16:45:45.767Z,39.38
2023-01-01T16:48:13.055Z,39.33
2023-01-01T16:50:40.711Z,45.00
2023-01-01T16:53:07.862Z,42.08
2023-01-01T16:55:35.040Z,43.88
2023-01-01T16:58:38.641Z,42.33
2023-01-01T17:00:50.346Z,45.67
2023-01-01T17:03:17.532Z,45.33
2023-01-01T17:05:45.116Z,47.60
2023-01-01T17:08:12.477Z,51.58
2023-01-01T17:10:39.533Z,53.15
2023-01-01T17:13:07.910Z,55.97
2023-01-01T17:15:35.127Z,55.60
2023-01-01T17:18:02.376Z,54.22
2023-01-01T17:20:29.534Z,54.33
2023-01-01T17:22:56.608Z,55.00
2023-01-01T17:25:23.742Z,54.17
2023-01-01T17:27:50.920Z,53.88
2023-01-01T17:30:18.278Z,50.33
2023-01-01T17:32:45.422Z,49.83
2023-01-01T17:35:12.641Z,48.28
2023-01-01T17:37:39.620Z,47.08
2023-01-01T17:40:07.307Z,47.88
2023-01-01T17:42:35.010Z,45.78
2023-01-01T17:45:02.297Z,44.70
2023-01-01T17:47:32.755Z,43.08
2023-01-01T17:50:00.630Z,42.95
2023-01-01T17:52:27.971Z,42.20
2023-01-01T17:54:55.116Z,43.70
2023-01-01T17:57:22.278Z,43.90
2023-01-01T17:59:49.516Z,46.75
2023-01-01T18:02:16.989Z,46.63
2023-01-01T18:04:45.339Z,49.50
2023-01-01T18:07:12.525Z,51.83
2023-01-01T18:09:40.643Z,56.35
2023-01-01T18:12:07.968Z,57.17
2023-01-01T18:14:35.077Z,50.90
2023-01-01T18:17:02.309Z,50.67
2023-01-01T18:19:29.653Z,52.08
2023-01-01T18:21:56.837Z,51.30
2023-01-01T18:24:24.000Z,52.05
2023-01-01T18:26:51.287Z,54.42
2023-01-01T18:29:18.568Z,50.40
2023-01-01T18:31:45.790Z,45.45
2023-01-01T18:34:13.493Z,43.00
2023-01-01T18:36:41.109Z,42.13
2023-01-01T18:39:17.393Z,41.92
2023-01-01T18:42:03.185Z,39.67
2023-01-01T18:44:33.810Z,37.38
2023-01-01T18:47:06.678Z,35.97
2023-01-01T18:49:34.396Z,37.95
2023-01-01T18:52:19.992Z,31.60
2023-01-01T18:54:47.154Z,34.78
2023-01-01T18:57:28.951Z,36.03
2023-01-01T18:59:58.976Z,38.03
2023-01-01T19:02:46.021Z,39.40
2023-01-01T19:05:27.539Z,38.13
2023-01-01T19:08:06.874Z,36.85
2023-01-01T19:10:54.257Z,35.17
2023-01-01T19:13:23.553Z,34.75
2023-01-01T19:16:09.074Z,31.65
2023-01-01T19:18:38.147Z,30.85
2023-01-01T19:21:08.343Z,30.60
2023-01-01T19:23:38.119Z,30.13
2023-01-01T19:26:06.364Z,30.42
2023-01-01T19:28:34.891Z,30.95
2023-01-01T19:31:02.838Z,28.80
2023-01-01T19:33:31.809Z,27.77
2023-01-01T19:35:59.094Z,28.83
2023-01-01T19:38:26.233Z,28.38
2023-01-01T19:40:53.733Z,29.58
2023-01-01T19:43:21.610Z,30.40
2023-01-01T19:45:48.840Z,30.45
2023-01-01T19:48:16.058Z,31.30
2023-01-01T19:50:43.228Z,32.67
2023-01-01T19:53:10.250Z,34.60
2023-01-01T19:55:37.871Z,32.80
2023-01-01T19:58:05.992Z,31.60
2023-01-01T20:00:33.252Z,31.95
2023-01-01T20:03:25.907Z,30.55
2023-01-01T20:05:47.498Z,31.45
2023-01-01T20:08:14.532Z,32.38
2023-01-01T20:10:41.949Z,31.48
2023-01-01T20:13:09.733Z,31.65
2023-01-01T20:15:44.838Z,31.40
2023-01-01T20:18:14.104Z,32.22
2023-01-01T20:20:59.875Z,35.83
2023-01-01T20:23:27.126Z,49.22
2023-01-01T20:25:54.178Z,58.30
2023-01-01T20:28:39.979Z,59.42
2023-01-01T20:31:07.274Z,60.25
2023-01-01T20:33:34.432Z,67.72
2023-01-01T20:36:20.166Z,67.13
2023-01-01T20:38:47.455Z,69.20
2023-01-01T20:41:26.720Z,70.63
2023-01-01T20:43:55.299Z,73.45
2023-01-01T20:46:23.269Z,72.93
2023-01-01T20:48:50.422Z,73.97
2023-01-01T20:51:17.512Z,69.32
2023-01-01T20:53:47.468Z,65.00
2023-01-01T20:56:14.520Z,64.00
2023-01-01T20:58:48.084Z,63.80
2023-01-01T21:01:17.387Z,53.45
2023-01-01T21:03:44.572Z,54.85
2023-01-01T21:06:11.740Z,49.45
2023-01-01T21:08:39.074Z,49.38
2023-01-01T21:11:06.371Z,44.22
2023-01-01T21:13:33.408Z,42.25
2023-01-01T21:16:11.529Z,43.38
2023-01-01T21:18:38.636Z,44.00
2023-01-01T21:21:09.611Z,41.67
2023-01-01T21:23:36.900Z,39.13
2023-01-01T21:26:08.276Z,38.35
2023-01-01T21:28:35.384Z,37.72
2023-01-01T21:31:06.877Z,32.22
2023-01-01T21:33:35.487Z,33.15
2023-01-01T21:36:05.466Z,33.35
2023-01-01T21:38:32.829Z,32.20
2023-01-01T21:41:00.494Z,32.30
2023-01-01T21:43:44.524Z,30.83
2023-01-01T21:46:11.863Z,30.48
2023-01-01T21:48:55.854Z,29.67
2023-01-01T21:51:27.143Z,27.48
2023-01-01T21:54:14.489Z,27.20
2023-01-01T21:56:43.426Z,25.55
2023-01-01T21:59:28.043Z,24.55
2023-01-01T22:02:02.231Z,25.42
2023-01-01T22:04:34.403Z,23.17
2023-01-01T22:07:09.613Z,23.95
2023-01-01T22:09:48.282Z,22.95
2023-01-01T22:12:18.235Z,23.20
2023-01-01T22:14:49.474Z,22.17
2023-01-01T22:17:22.540Z,24.30
2023-01-01T22:19:50.171Z,21.60
2023-01-01T22:22:18.751Z,22.13
2023-01-01T22:24:56.939Z,19.55
2023-01-01T22:27:36.076Z,17.30
2023-01-01T22:30:09.472Z,17.98
2023-01-01T22:32:37.077Z,16.08
2023-01-01T22:35:26.228Z,15.27
2023-01-01T22:37:55.921Z,16.98
2023-01-01T22:40:29.444Z,16.90
2023-01-01T22:43:16.783Z,17.63
2023-01-01T22:45:47.645Z,16.92
2023-01-01T22:48:21.781Z,18.92
2023-01-01T22:50:49.707Z,17.27
2023-01-01T22:53:17.786Z,18.10
2023-01-01T22:55:46.176Z,22.00
2023-01-01T22:58:13.335Z,22.65
2023-01-01T23:00:40.462Z,25.73
2023-01-01T23:03:07.646Z,27.42
2023-01-01T23:05:34.895Z,26.55
2023-01-01T23:08:02.072Z,24.20
2023-01-01T23:10:29.206Z,22.52
2023-01-01T23:12:56.313Z,21.88
2023-01-01T23:15:42.077Z,21.95
2023-01-01T23:18:10.051Z,21.50
2023-01-01T23:20:37.235Z,19.95
2023-01-01T23:23:04.324Z,20.05
2023-01-01T23:25:31.531Z,19.52
2023-01-01T23:27:58.594Z,18.38
2023-01-01T23:30:25.980Z,20.00
2023-01-01T23:32:53.067Z,19.45
2023-01-01T23:35:20.239Z,18.42
2023-01-01T23:37:47.382Z,17.85
2023-01-01T23:40:14.498Z,16.52
2023-01-01T23:42:41.613Z,17.25
2023-01-01T23:45:08.985Z,19.63
2023-01-01T23:47:36.163Z,23.90
2023-01-01T23:50:03.903Z,21.40
2023-01-01T23:52:31.091Z,25.90
2023-01-01T23:54:58.207Z,24.48
2023-01-01T23:57:26.042Z,26.73
2023-01-01T23:59:53.360Z,27.83
